Main page
METAR-TAF:

METAR-TAF

Airports :

Abakan International Airport

Abakan, Russia

latitude: 53-45N, longitude: 091-24E, elevation: 245 m

Current weather observation

The report was made 42 minutes ago, at 06:30 UTC
Wind 4 kt from the Southwest, varying between South and West
Temperature 9°C
Humidity 53%
Pressure 1012 hPa
Visibility 10 km or more
Scattered clouds at a height of 4500 ft

METAR: UNAA 260630Z 22002MPS 180V270 9999 SCT045 09/00 Q1012 R20/CLRD65 NOSIG RMK QFE737

Time: 14:12 (07:12 UTC)

Forecast

The report was made 2 hours and 14 minutes ago, at 04:58 UTC
Forecast valid from 26 at 06 UTC to 27 at 06 UTC
Wind 6 kt from the South/Southwest with gusts up to 16 kt
Visibility 10 km or more
Scattered clouds at a height of 2000 ft, Cumulonimbus.
Temporary
from 26 at 06 UTC to 26 at 18 UTC
Visibility: 6000 m
light rain showers

TAF: UNAA 260458Z 2606/2706 21003G08MPS 9999 SCT020CB TEMPO 2606/2618 6000 -SHRA

Weather observations and forecasts of more than 4000 airports (METAR and TAF reports).

The available stations are represented by yellow and red dots on the map.

Hover mouse over dot to see the name of the station.

Then click to see weather observations and forecasts.

To change the map : click on the green buttons with a black cross to zoom in, on the green button with a dash to zoom out, or on the green arrows for adjacent maps.


METAR-TAF: